Rozel, Kansas
Current Conditions -  °F | °C
As of 4:55 PM on Tuesday 21 Oct 2014 (Local Time) from KGBD Reporting Station
Scattered Clouds Scattered Clouds  
Wind Chill: 81°   Ceiling: Unl
Heat Index: 81°   Visibility: 10mi
Dew Point: 55°   Wind: 15mph
Humidity: 42%   Direction: 190°S
Pressure: 29.97"   Gusts: 22mph
Location:  38.2°N, 99.4°W
Report Text: KGBD 212155Z AUTO 19013G19KT 10SM SCT070 27/13 A2997 RMK AO1
Loading
Personal Weather Stations






























Interactive Weather Map
Tropical Storm Tracking
New forecast layout! Learn more

10-Day Weather Forecast

Advertisements
Track Severe Weather on mobile